Hauptseite
METAR-TAF:

METAR-TAF

Flughäfen :

Uden, Niederlande

Militärflugplatz Volkel

Breite: 51-39N, Länge: 005-42E, Höhe: 22 m

Beobachtung

Neuester Wetterbericht von vor 25 Minuten, um 06:25 UTC
Wind 3 kt aus Ost, variierte zwischen Ost und Süd/Südost
Temperatur 14°C
Luftfeuchtigkeit 72%
Luftdruck 1013 hPa
Sichtweite 10 km oder mehr
Aufgelockert bewölkt in der Höhe von 28000 ft

METAR: EHVK 220625Z AUTO 10003KT 090V150 9999 SCT280 14/09 Q1013 BLU

Zeit: 08:50 (06:50 UTC)


TAF: fehlend

Wetterbeobachtungen und Prognosen von mehr als 4000 Flughäfen (METAR und TAF Bericht).

Die verfügbaren Stationen werden durch gelbe und rote Markierungen auf der Karte dargestellt.

Führen Sie die Maus auf sie, um den Namen der Station zu sehen.

Darauf klicken, um die Beobachtung von Wetterbeobachtungen und Prognosen zu sehen.

Um die Karte zu ändern : klicken Sie auf den grünen Tasten mit einem schwarzen Kreuz Zum Vergrößern, auf den grünen Button mit einem Gedankenstrich zu verkleinern, oder auf die grünen Pfeile für benachbarte Karten.


METAR-TAF: